Time;durP1;ratioP1;P1;durP2;ratioP2;P2;SDS_P1;SDS_P2;PMS_P1;PMS_P2;Temp;Humidity;BMP_temperature;BMP_pressure;BME280_temperature;BME280_humidity;BME280_pressure;Samples;Min_cycle;Max_cycle;Signal;HPM_P1;HPM_P2
2021/05/21 00:01:37;;;;;;;12.88;2.35;;;;;;;;;;5046993;28;20021;-59
2021/05/21 00:04:04;;;;;;;7.80;2.35;;;;;;;;;;5044798;28;20374;-58
2021/05/21 00:06:31;;;;;;;12.00;1.95;;;;;;;;;;5048489;28;20439;-58
2021/05/21 00:08:59;;;;;;;15.38;3.10;;;;;;;;;;5040770;28;20399;-58
2021/05/21 00:11:26;;;;;;;5.20;1.63;;;;;;;;;;5043554;28;20030;-58
2021/05/21 00:13:53;;;;;;;6.43;1.95;;;;;;;;;;5040064;28;20021;-59
2021/05/21 00:16:20;;;;;;;8.70;1.75;;;;;;;;;;5043439;28;20025;-59
2021/05/21 00:18:48;;;;;;;5.60;1.80;;;;;;;;;;5047366;28;20067;-60
2021/05/21 00:21:16;;;;;;;8.68;2.00;;;;;;;;;;5044831;28;20116;-61
2021/05/21 00:23:43;;;;;;;12.45;1.63;;;;;;;;;;5043857;28;20091;-60
2021/05/21 00:26:10;;;;;;;11.20;1.90;;;;;;;;;;5050595;28;20025;-58
2021/05/21 00:28:37;;;;;;;6.65;1.67;;;;;;;;;;5047700;28;20468;-59
2021/05/21 00:31:05;;;;;;;5.00;1.40;;;;;;;;;;5024328;28;20127;-60
2021/05/21 00:33:32;;;;;;;10.88;1.90;;;;;;;;;;5043739;28;20025;-59
2021/05/21 00:35:59;;;;;;;7.65;1.80;;;;;;;;;;5049507;28;20029;-58
2021/05/21 00:38:26;;;;;;;12.43;1.65;;;;;;;;;;5046525;28;20419;-60
2021/05/21 00:40:53;;;;;;;10.73;2.30;;;;;;;;;;5041241;28;20571;-58
2021/05/21 00:43:20;;;;;;;12.75;2.15;;;;;;;;;;5048179;28;20061;-60
2021/05/21 00:45:47;;;;;;;15.80;2.20;;;;;;;;;;5045121;28;20048;-60
2021/05/21 00:48:15;;;;;;;9.07;1.90;;;;;;;;;;5047654;28;20447;-59
2021/05/21 00:50:42;;;;;;;18.23;2.28;;;;;;;;;;5045935;28;20021;-58
2021/05/21 00:53:10;;;;;;;11.70;2.05;;;;;;;;;;5037978;28;20025;-59
2021/05/21 00:55:37;;;;;;;16.92;1.95;;;;;;;;;;5047545;28;20025;-58
2021/05/21 00:58:05;;;;;;;10.80;2.33;;;;;;;;;;5044392;28;20021;-59
2021/05/21 01:00:32;;;;;;;14.18;2.47;;;;;;;;;;5013474;28;20453;-59
2021/05/21 01:03:00;;;;;;;14.60;2.30;;;;;;;;;;5048230;28;20529;-58
2021/05/21 01:05:27;;;;;;;17.23;3.47;;;;;;;;;;5046332;28;20061;-59
2021/05/21 01:07:54;;;;;;;14.38;3.17;;;;;;;;;;5044343;28;20045;-60
2021/05/21 01:10:21;;;;;;;20.52;4.43;;;;;;;;;;5044312;28;20071;-61
2021/05/21 01:12:48;;;;;;;16.88;4.85;;;;;;;;;;5048544;28;20039;-59
2021/05/21 01:15:16;;;;;;;15.77;5.25;;;;;;;;;;5040292;28;20053;-59
2021/05/21 01:17:43;;;;;;;13.30;4.85;;;;;;;;;;5046061;28;20024;-60
2021/05/21 01:20:13;;;;;;;17.02;4.95;;;;;;;;;;5044678;28;20025;-60
2021/05/21 01:22:40;;;;;;;22.40;4.75;;;;;;;;;;5047375;28;20029;-60
2021/05/21 01:25:07;;;;;;;11.70;3.53;;;;;;;;;;5043225;28;20591;-60
2021/05/21 01:27:35;;;;;;;15.25;3.97;;;;;;;;;;5049223;28;20496;-59
2021/05/21 01:30:02;;;;;;;14.15;3.90;;;;;;;;;;5043412;28;20048;-59
2021/05/21 01:32:29;;;;;;;17.33;3.83;;;;;;;;;;5048932;28;20120;-60
2021/05/21 01:34:56;;;;;;;11.35;3.80;;;;;;;;;;5051558;28;20030;-59
2021/05/21 01:37:23;;;;;;;15.82;4.43;;;;;;;;;;5047233;28;20102;-60
2021/05/21 01:39:51;;;;;;;12.02;3.50;;;;;;;;;;5047483;28;20025;-59
2021/05/21 01:42:19;;;;;;;17.05;3.50;;;;;;;;;;5051167;28;20033;-59
2021/05/21 01:44:46;;;;;;;10.90;3.53;;;;;;;;;;5046178;28;20413;-60
2021/05/21 01:47:14;;;;;;;16.80;3.35;;;;;;;;;;5054095;28;20110;-63
2021/05/21 01:49:42;;;;;;;28.48;3.95;;;;;;;;;;5045594;28;20021;-63
2021/05/21 01:52:09;;;;;;;21.20;3.75;;;;;;;;;;5042352;28;20025;-59
2021/05/21 01:54:36;;;;;;;14.75;3.50;;;;;;;;;;5042935;28;20033;-62
2021/05/21 01:57:04;;;;;;;24.73;3.67;;;;;;;;;;5046436;28;20104;-61
2021/05/21 01:59:31;;;;;;;14.60;3.13;;;;;;;;;;5044234;28;20063;-59
2021/05/21 02:01:58;;;;;;;16.23;3.08;;;;;;;;;;5050653;28;20036;-60
2021/05/21 02:04:28;;;;;;;14.23;3.10;;;;;;;;;;5043160;28;20071;-59
2021/05/21 02:06:55;;;;;;;16.13;3.13;;;;;;;;;;5046528;28;20041;-61
2021/05/21 02:09:22;;;;;;;14.00;2.78;;;;;;;;;;5043690;28;20385;-58
2021/05/21 02:11:49;;;;;;;18.60;2.97;;;;;;;;;;5043040;28;20028;-59
2021/05/21 02:14:17;;;;;;;12.30;2.60;;;;;;;;;;5044319;28;20031;-60
2021/05/21 02:16:44;;;;;;;14.60;3.10;;;;;;;;;;5050568;28;20120;-60
2021/05/21 02:19:11;;;;;;;11.98;2.78;;;;;;;;;;5049878;28;20032;-61
2021/05/21 02:21:40;;;;;;;12.80;2.50;;;;;;;;;;5049881;28;20056;-58
2021/05/21 02:24:08;;;;;;;11.40;2.45;;;;;;;;;;5044995;28;20099;-60
2021/05/21 02:26:35;;;;;;;15.00;2.28;;;;;;;;;;5045448;28;20036;-60
2021/05/21 02:29:02;;;;;;;5.90;2.17;;;;;;;;;;5049950;28;20090;-60
2021/05/21 02:31:29;;;;;;;14.35;2.83;;;;;;;;;;5047932;28;20033;-60
2021/05/21 02:33:56;;;;;;;8.57;2.85;;;;;;;;;;5050680;28;20060;-61
2021/05/21 02:36:23;;;;;;;10.27;2.25;;;;;;;;;;5038215;28;20017;-62
2021/05/21 02:38:50;;;;;;;8.18;2.40;;;;;;;;;;5042880;28;20035;-61
2021/05/21 02:41:18;;;;;;;7.45;2.70;;;;;;;;;;5047075;28;20017;-61
2021/05/21 02:43:45;;;;;;;10.90;2.60;;;;;;;;;;5039039;28;20107;-61
2021/05/21 02:46:12;;;;;;;7.78;2.63;;;;;;;;;;5043535;28;20076;-61
2021/05/21 02:48:39;;;;;;;6.78;1.85;;;;;;;;;;5048970;28;20029;-62
2021/05/21 02:51:06;;;;;;;9.07;2.80;;;;;;;;;;5042718;28;20029;-63
2021/05/21 02:53:33;;;;;;;9.68;2.20;;;;;;;;;;5042447;28;20026;-62
2021/05/21 02:56:00;;;;;;;8.85;2.25;;;;;;;;;;5043101;28;20024;-63
2021/05/21 02:58:27;;;;;;;8.70;2.13;;;;;;;;;;5049343;28;20057;-62
2021/05/21 03:00:54;;;;;;;10.60;2.60;;;;;;;;;;5038736;28;20053;-62
2021/05/21 03:03:21;;;;;;;10.82;2.17;;;;;;;;;;5041154;28;20033;-63
2021/05/21 03:05:48;;;;;;;12.85;2.40;;;;;;;;;;5043764;28;20025;-63
2021/05/21 03:08:15;;;;;;;7.10;1.95;;;;;;;;;;5049195;28;20473;-63
2021/05/21 03:10:42;;;;;;;10.20;2.67;;;;;;;;;;5052104;28;20028;-63
2021/05/21 03:13:09;;;;;;;12.32;2.08;;;;;;;;;;5034983;28;20381;-63
2021/05/21 03:15:37;;;;;;;10.15;2.28;;;;;;;;;;5052344;28;20021;-63
2021/05/21 03:18:04;;;;;;;12.63;2.25;;;;;;;;;;5052199;28;20025;-63
2021/05/21 03:20:31;;;;;;;9.15;2.08;;;;;;;;;;5052846;28;20059;-63
2021/05/21 03:22:58;;;;;;;13.63;1.92;;;;;;;;;;5052552;28;20028;-63
2021/05/21 03:25:25;;;;;;;12.60;2.20;;;;;;;;;;5052767;28;20439;-63
2021/05/21 03:27:52;;;;;;;15.73;2.13;;;;;;;;;;5051153;28;20051;-63
2021/05/21 03:30:19;;;;;;;7.45;2.10;;;;;;;;;;5052024;28;20079;-63
2021/05/21 03:32:46;;;;;;;9.27;2.55;;;;;;;;;;5051092;28;20376;-63
2021/05/21 03:35:13;;;;;;;9.88;2.08;;;;;;;;;;5034376;28;20016;-62
2021/05/21 03:37:40;;;;;;;12.45;2.53;;;;;;;;;;5051587;28;20021;-62
2021/05/21 03:40:08;;;;;;;17.60;2.28;;;;;;;;;;5050039;28;20564;-62
2021/05/21 03:42:35;;;;;;;27.05;2.63;;;;;;;;;;5041465;28;20021;-62
2021/05/21 03:45:03;;;;;;;6.65;2.08;;;;;;;;;;5046659;28;20053;-63
2021/05/21 03:47:31;;;;;;;12.32;2.67;;;;;;;;;;5051078;28;20037;-62
2021/05/21 03:49:58;;;;;;;9.15;2.20;;;;;;;;;;5052059;28;20028;-63
2021/05/21 03:52:25;;;;;;;11.32;2.20;;;;;;;;;;5051201;28;20052;-62
2021/05/21 03:54:52;;;;;;;8.95;2.40;;;;;;;;;;5051238;28;20083;-62
2021/05/21 03:57:21;;;;;;;11.07;2.10;;;;;;;;;;5051556;28;20096;-63
2021/05/21 03:59:48;;;;;;;16.10;2.47;;;;;;;;;;5051866;28;20346;-63
2021/05/21 04:02:15;;;;;;;7.22;2.05;;;;;;;;;;5052281;28;20016;-63
2021/05/21 04:04:42;;;;;;;9.27;2.10;;;;;;;;;;5051811;28;20013;-63
2021/05/21 04:07:09;;;;;;;11.00;2.13;;;;;;;;;;5051854;28;20029;-62
2021/05/21 04:09:36;;;;;;;10.30;1.98;;;;;;;;;;5051709;28;20021;-64
2021/05/21 04:12:04;;;;;;;12.68;1.80;;;;;;;;;;5052095;28;20082;-62
2021/05/21 04:14:31;;;;;;;8.38;2.05;;;;;;;;;;5051858;28;20025;-63
2021/05/21 04:16:58;;;;;;;6.05;1.75;;;;;;;;;;5051876;28;20059;-62
2021/05/21 04:19:25;;;;;;;8.38;2.08;;;;;;;;;;5051620;28;20032;-62
2021/05/21 04:21:52;;;;;;;7.65;2.03;;;;;;;;;;5052026;28;20029;-62
2021/05/21 04:24:19;;;;;;;6.32;1.98;;;;;;;;;;5051442;28;20017;-63
2021/05/21 04:26:46;;;;;;;6.18;1.80;;;;;;;;;;5051662;28;20043;-63
2021/05/21 04:29:13;;;;;;;4.80;1.80;;;;;;;;;;5051489;28;20032;-63
2021/05/21 04:31:40;;;;;;;5.03;2.00;;;;;;;;;;5051739;28;20604;-62
2021/05/21 04:34:07;;;;;;;5.47;2.08;;;;;;;;;;5034064;28;20104;-62
2021/05/21 04:36:34;;;;;;;6.45;1.70;;;;;;;;;;5051887;28;20032;-63
2021/05/21 04:39:01;;;;;;;3.95;1.60;;;;;;;;;;5051453;28;20029;-62
2021/05/21 04:41:28;;;;;;;5.60;1.80;;;;;;;;;;5051339;28;20105;-63
2021/05/21 04:43:55;;;;;;;5.65;1.60;;;;;;;;;;5051900;28;20021;-62
2021/05/21 04:46:22;;;;;;;7.22;1.55;;;;;;;;;;5051244;28;20060;-63
2021/05/21 04:48:49;;;;;;;4.03;1.70;;;;;;;;;;5033542;28;20408;-62
2021/05/21 04:51:16;;;;;;;6.68;1.95;;;;;;;;;;5051198;28;20377;-63
2021/05/21 04:53:43;;;;;;;8.65;1.85;;;;;;;;;;5051555;28;20014;-63
2021/05/21 04:56:11;;;;;;;6.22;2.22;;;;;;;;;;5051026;28;20022;-63
2021/05/21 04:58:38;;;;;;;6.07;1.38;;;;;;;;;;5051349;28;20389;-63
2021/05/21 05:01:05;;;;;;;5.57;1.63;;;;;;;;;;5051128;28;20029;-62
2021/05/21 05:03:33;;;;;;;5.03;1.63;;;;;;;;;;5051915;28;20062;-62
2021/05/21 05:05:59;;;;;;;5.82;1.50;;;;;;;;;;5054953;28;20032;-62
2021/05/21 05:08:28;;;;;;;4.80;1.50;;;;;;;;;;5055348;28;20119;-63
2021/05/21 05:10:55;;;;;;;3.22;1.20;;;;;;;;;;5054988;28;20064;-62
2021/05/21 05:13:22;;;;;;;4.80;1.40;;;;;;;;;;5055135;28;20028;-63
2021/05/21 05:15:49;;;;;;;3.03;1.48;;;;;;;;;;5055619;28;20714;-62
2021/05/21 05:18:16;;;;;;;7.00;1.50;;;;;;;;;;5054765;28;20047;-62
2021/05/21 05:20:45;;;;;;;3.70;1.50;;;;;;;;;;5055194;28;20070;-62
2021/05/21 05:23:12;;;;;;;4.78;1.65;;;;;;;;;;5054882;28;20021;-62
2021/05/21 05:25:43;;;;;;;5.10;1.50;;;;;;;;;;5055449;28;20017;-63
2021/05/21 05:28:12;;;;;;;7.07;1.48;;;;;;;;;;5054562;28;20037;-62
2021/05/21 05:30:39;;;;;;;4.80;1.67;;;;;;;;;;5054836;28;20049;-62
2021/05/21 05:33:06;;;;;;;5.03;1.70;;;;;;;;;;5054661;28;20044;-62
2021/05/21 05:35:33;;;;;;;4.22;1.15;;;;;;;;;;5054971;28;20021;-63
2021/05/21 05:38:00;;;;;;;2.72;1.20;;;;;;;;;;5054521;28;20035;-62
2021/05/21 05:40:30;;;;;;;6.40;1.45;;;;;;;;;;5054982;28;20021;-63
2021/05/21 05:42:57;;;;;;;4.18;1.27;;;;;;;;;;5054108;28;20027;-62
2021/05/21 05:45:24;;;;;;;4.38;1.30;;;;;;;;;;5055097;28;20075;-62
2021/05/21 05:47:51;;;;;;;5.00;1.30;;;;;;;;;;5054908;28;20477;-62
2021/05/21 05:50:18;;;;;;;2.83;1.10;;;;;;;;;;5054033;28;20025;-62
2021/05/21 05:52:45;;;;;;;7.35;1.30;;;;;;;;;;5037175;28;20032;-62
2021/05/21 05:55:13;;;;;;;4.90;1.27;;;;;;;;;;5054169;28;20071;-62
2021/05/21 05:57:40;;;;;;;3.13;1.48;;;;;;;;;;5054699;28;20511;-63
2021/05/21 06:00:07;;;;;;;3.67;1.27;;;;;;;;;;5053933;28;20126;-63
2021/05/21 06:02:34;;;;;;;2.72;1.20;;;;;;;;;;5054790;28;20032;-63
2021/05/21 06:05:02;;;;;;;4.10;1.30;;;;;;;;;;5035994;28;20056;-61
2021/05/21 06:07:30;;;;;;;1.92;1.00;;;;;;;;;;5054339;28;20037;-62
2021/05/21 06:09:57;;;;;;;4.40;1.40;;;;;;;;;;5053961;28;20025;-63
2021/05/21 06:12:24;;;;;;;2.30;1.02;;;;;;;;;;5054579;28;20120;-62
2021/05/21 06:14:51;;;;;;;2.75;1.20;;;;;;;;;;5045348;28;20025;-62
2021/05/21 06:17:19;;;;;;;4.90;1.45;;;;;;;;;;5054518;28;20029;-63
2021/05/21 06:19:47;;;;;;;2.72;1.10;;;;;;;;;;5053649;28;20451;-62
2021/05/21 06:22:14;;;;;;;3.10;1.40;;;;;;;;;;5054193;28;20136;-63
2021/05/21 06:24:44;;;;;;;2.33;1.20;;;;;;;;;;5054123;28;20087;-62
2021/05/21 06:27:28;;;;;;;2.95;1.00;;;;;;;;;;5053811;28;20544;-63
2021/05/21 06:29:56;;;;;;;4.18;1.38;;;;;;;;;;5053287;28;20071;-62
2021/05/21 06:32:23;;;;;;;2.30;1.10;;;;;;;;;;5053841;28;20420;-62
2021/05/21 06:34:50;;;;;;;4.03;1.23;;;;;;;;;;5045898;28;20487;-62
2021/05/21 06:37:17;;;;;;;1.95;0.90;;;;;;;;;;5053576;28;20017;-62
2021/05/21 06:39:44;;;;;;;3.00;1.20;;;;;;;;;;5053700;28;20024;-62
2021/05/21 06:42:11;;;;;;;2.80;0.80;;;;;;;;;;5053551;28;20021;-62
2021/05/21 06:44:39;;;;;;;2.08;1.20;;;;;;;;;;5053678;28;20063;-62
2021/05/21 06:47:06;;;;;;;3.50;1.20;;;;;;;;;;5053255;28;20041;-62
2021/05/21 06:49:36;;;;;;;2.85;1.20;;;;;;;;;;5053767;28;20036;-63
2021/05/21 06:52:03;;;;;;;3.58;1.10;;;;;;;;;;5053225;28;20473;-62
2021/05/21 06:54:31;;;;;;;3.03;1.17;;;;;;;;;;5053594;28;20071;-62
2021/05/21 06:56:58;;;;;;;2.17;0.95;;;;;;;;;;5053321;28;20370;-62
2021/05/21 06:59:25;;;;;;;3.47;1.10;;;;;;;;;;5053410;28;20021;-62
2021/05/21 07:01:52;;;;;;;3.03;1.10;;;;;;;;;;5053084;28;20111;-62
2021/05/21 07:04:19;;;;;;;1.63;0.93;;;;;;;;;;5053432;28;20071;-63
2021/05/21 07:06:46;;;;;;;3.03;0.90;;;;;;;;;;5052980;28;20072;-62
2021/05/21 07:09:13;;;;;;;2.53;1.08;;;;;;;;;;5053476;28;20100;-62
2021/05/21 07:11:40;;;;;;;2.47;0.93;;;;;;;;;;5052759;28;20447;-62
2021/05/21 07:14:10;;;;;;;3.08;1.08;;;;;;;;;;5053092;28;20021;-62
2021/05/21 07:16:37;;;;;;;2.50;1.05;;;;;;;;;;5053156;28;20028;-62
2021/05/21 07:19:04;;;;;;;1.88;1.08;;;;;;;;;;5052532;28;20064;-62
2021/05/21 07:21:31;;;;;;;3.72;0.77;;;;;;;;;;5053061;28;20075;-62
2021/05/21 07:23:58;;;;;;;2.20;1.20;;;;;;;;;;5052365;28;20476;-62
2021/05/21 07:26:26;;;;;;;1.90;0.90;;;;;;;;;;5051953;28;20086;-62
2021/05/21 07:28:53;;;;;;;2.80;1.08;;;;;;;;;;5052528;28;20020;-62
2021/05/21 07:31:25;;;;;;;1.50;0.70;;;;;;;;;;5052538;28;20045;-62
2021/05/21 07:33:52;;;;;;;1.33;0.70;;;;;;;;;;5052570;28;20100;-62
2021/05/21 07:36:19;;;;;;;2.78;0.90;;;;;;;;;;5052995;28;20048;-63
2021/05/21 07:38:46;;;;;;;1.63;0.73;;;;;;;;;;5052278;28;20049;-63
2021/05/21 07:41:14;;;;;;;3.17;0.90;;;;;;;;;;5052595;28;20067;-62
2021/05/21 07:43:41;;;;;;;2.08;0.80;;;;;;;;;;5052077;28;20025;-62
2021/05/21 07:46:08;;;;;;;1.23;0.50;;;;;;;;;;5052826;28;20021;-62
2021/05/21 07:48:35;;;;;;;2.03;1.00;;;;;;;;;;5052169;28;20025;-63
2021/05/21 07:51:03;;;;;;;2.35;0.70;;;;;;;;;;5052192;28;20048;-63
2021/05/21 07:53:32;;;;;;;1.20;0.63;;;;;;;;;;5052256;28;20096;-62
2021/05/21 07:55:59;;;;;;;4.35;1.52;;;;;;;;;;5052218;28;20053;-62
2021/05/21 07:58:26;;;;;;;4.57;0.90;;;;;;;;;;5052480;28;20438;-62
2021/05/21 08:00:54;;;;;;;3.05;1.00;;;;;;;;;;5051939;28;20017;-63
2021/05/21 08:03:21;;;;;;;0.90;0.60;;;;;;;;;;5052444;28;20033;-63
2021/05/21 08:05:48;;;;;;;2.42;0.90;;;;;;;;;;5033874;28;20075;-63
2021/05/21 08:08:20;;;;;;;1.63;0.80;;;;;;;;;;5034456;28;20033;-63
2021/05/21 08:10:55;;;;;;;1.77;0.95;;;;;;;;;;5051422;28;20032;-63
2021/05/21 08:13:22;;;;;;;2.22;0.73;;;;;;;;;;5052229;28;20099;-63
2021/05/21 08:15:50;;;;;;;1.70;0.70;;;;;;;;;;5051638;28;20024;-63
2021/05/21 08:18:17;;;;;;;3.05;1.10;;;;;;;;;;5052230;28;20484;-62
2021/05/21 08:20:45;;;;;;;2.75;0.80;;;;;;;;;;5051174;28;20050;-62
2021/05/21 08:23:14;;;;;;;1.08;0.57;;;;;;;;;;5051946;28;20508;-62
2021/05/21 08:25:41;;;;;;;0.73;0.60;;;;;;;;;;5051461;28;20021;-62
2021/05/21 08:28:09;;;;;;;1.15;0.70;;;;;;;;;;5051713;28;20092;-63
2021/05/21 08:30:36;;;;;;;1.80;0.70;;;;;;;;;;5050940;28;20044;-63
2021/05/21 08:33:05;;;;;;;3.97;0.90;;;;;;;;;;5033659;28;20491;-62
2021/05/21 08:35:32;;;;;;;0.75;0.50;;;;;;;;;;5051040;28;20103;-62
2021/05/21 08:37:59;;;;;;;1.83;0.60;;;;;;;;;;5051389;28;20017;-62
2021/05/21 08:40:35;;;;;;;2.05;0.70;;;;;;;;;;5051127;28;20040;-62
2021/05/21 08:43:05;;;;;;;1.33;0.57;;;;;;;;;;5051411;28;20025;-62
2021/05/21 08:45:33;;;;;;;1.60;0.65;;;;;;;;;;5051246;28;20029;-62
2021/05/21 08:48:01;;;;;;;2.30;0.80;;;;;;;;;;5051541;28;20033;-63
2021/05/21 08:50:29;;;;;;;2.95;0.70;;;;;;;;;;5051563;28;20017;-61
2021/05/21 08:52:56;;;;;;;1.25;0.60;;;;;;;;;;5051133;28;20047;-62
2021/05/21 08:55:23;;;;;;;1.73;0.50;;;;;;;;;;5051639;28;20021;-62
2021/05/21 08:57:50;;;;;;;2.05;0.70;;;;;;;;;;5051368;28;20044;-62
2021/05/21 09:00:17;;;;;;;1.05;0.70;;;;;;;;;;5051564;28;20021;-63
2021/05/21 09:02:46;;;;;;;0.85;0.65;;;;;;;;;;5050934;28;20025;-63
2021/05/21 09:05:13;;;;;;;2.55;0.70;;;;;;;;;;5051591;28;20078;-63
2021/05/21 09:07:41;;;;;;;1.08;0.60;;;;;;;;;;5050810;28;20112;-62
2021/05/21 09:10:08;;;;;;;0.85;0.57;;;;;;;;;;5051502;28;20020;-63
2021/05/21 09:12:43;;;;;;;1.67;0.77;;;;;;;;;;5050925;28;20427;-62
2021/05/21 09:15:17;;;;;;;1.40;0.55;;;;;;;;;;5051497;28;20021;-62
2021/05/21 09:17:58;;;;;;;3.05;0.50;;;;;;;;;;5039983;28;20032;-63
2021/05/21 09:20:30;;;;;;;1.35;0.80;;;;;;;;;;5031435;28;20025;-62
2021/05/21 09:23:09;;;;;;;0.70;0.50;;;;;;;;;;5030728;28;20032;-62
2021/05/21 09:25:41;;;;;;;1.55;0.60;;;;;;;;;;5031422;28;20057;-62
2021/05/21 09:28:27;;;;;;;0.93;0.50;;;;;;;;;;5031060;28;20473;-62
2021/05/21 09:31:06;;;;;;;1.30;0.63;;;;;;;;;;5031130;28;20151;-62
2021/05/21 09:33:37;;;;;;;0.98;0.63;;;;;;;;;;5030875;28;20032;-63
2021/05/21 09:36:05;;;;;;;0.75;0.60;;;;;;;;;;5031424;28;20010;-62
2021/05/21 09:38:33;;;;;;;0.70;0.45;;;;;;;;;;5030805;28;20033;-63
2021/05/21 09:41:07;;;;;;;2.45;0.77;;;;;;;;;;5031277;28;20017;-62
2021/05/21 09:43:36;;;;;;;1.38;0.60;;;;;;;;;;5030628;28;20028;-62
2021/05/21 09:46:10;;;;;;;1.35;0.50;;;;;;;;;;5031324;28;20022;-63
2021/05/21 09:48:38;;;;;;;0.50;0.43;;;;;;;;;;5029529;28;20048;-63
2021/05/21 09:51:05;;;;;;;3.08;0.77;;;;;;;;;;5033866;28;20049;-62
2021/05/21 09:53:35;;;;;;;1.42;0.50;;;;;;;;;;5034271;28;20034;-63
2021/05/21 09:56:05;;;;;;;3.95;0.90;;;;;;;;;;5038375;28;20025;-62
2021/05/21 09:58:34;;;;;;;0.60;0.45;;;;;;;;;;5054006;28;20027;-63
2021/05/21 10:01:19;;;;;;;1.23;0.50;;;;;;;;;;5053861;28;20029;-62
2021/05/21 10:03:53;;;;;;;1.70;0.70;;;;;;;;;;5054096;28;20541;-63
2021/05/21 10:06:21;;;;;;;0.73;0.50;;;;;;;;;;5054321;28;20029;-63
2021/05/21 10:08:48;;;;;;;0.85;0.50;;;;;;;;;;5053846;28;20456;-62
2021/05/21 10:11:16;;;;;;;1.25;0.40;;;;;;;;;;5054577;28;20044;-63
2021/05/21 10:13:46;;;;;;;2.25;0.52;;;;;;;;;;5053723;28;20039;-61
2021/05/21 10:16:14;;;;;;;1.55;0.68;;;;;;;;;;5054421;28;20096;-63
2021/05/21 10:18:45;;;;;;;1.52;0.52;;;;;;;;;;5054176;28;20536;-63
2021/05/21 10:21:13;;;;;;;1.15;0.60;;;;;;;;;;5054010;28;20017;-62
2021/05/21 10:23:58;;;;;;;0.60;0.40;;;;;;;;;;5053813;28;20029;-62
2021/05/21 10:26:38;;;;;;;1.15;0.40;;;;;;;;;;5053865;28;20390;-62
2021/05/21 10:29:26;;;;;;;1.15;0.60;;;;;;;;;;5054132;28;20033;-62
2021/05/21 10:31:53;;;;;;;0.77;0.32;;;;;;;;;;5054094;28;20064;-63
2021/05/21 10:34:24;;;;;;;1.63;0.63;;;;;;;;;;5053768;28;20542;-62
2021/05/21 10:36:51;;;;;;;1.52;0.57;;;;;;;;;;5053907;28;20051;-63
2021/05/21 10:39:19;;;;;;;1.38;0.57;;;;;;;;;;5053911;28;20025;-62
2021/05/21 10:42:09;;;;;;;1.30;0.40;;;;;;;;;;5053403;28;20045;-63
2021/05/21 10:44:40;;;;;;;0.85;0.40;;;;;;;;;;5052118;28;20480;-63
2021/05/21 10:47:13;;;;;;;0.68;0.50;;;;;;;;;;5053138;28;20033;-62
2021/05/21 10:49:40;;;;;;;8.32;0.82;;;;;;;;;;5053597;28;20079;-62
2021/05/21 10:52:07;;;;;;;1.42;0.43;;;;;;;;;;5053279;28;20035;-61
2021/05/21 10:54:36;;;;;;;0.50;0.40;;;;;;;;;;5053174;28;20021;-61
2021/05/21 10:57:11;;;;;;;1.05;0.40;;;;;;;;;;5053189;28;20017;-62
2021/05/21 10:59:57;;;;;;;1.15;0.50;;;;;;;;;;5053596;28;20021;-62
2021/05/21 11:02:25;;;;;;;0.90;0.40;;;;;;;;;;5052980;28;20029;-62
2021/05/21 11:04:55;;;;;;;1.15;0.40;;;;;;;;;;5053092;28;20024;-61
2021/05/21 11:07:44;;;;;;;0.50;0.32;;;;;;;;;;5052623;28;20060;-62
2021/05/21 11:10:28;;;;;;;1.05;0.60;;;;;;;;;;5053298;28;20046;-62
2021/05/21 11:12:59;;;;;;;2.22;0.47;;;;;;;;;;5052512;28;20100;-61
2021/05/21 11:15:36;;;;;;;1.13;0.38;;;;;;;;;;5052952;28;20013;-61
2021/05/21 11:18:10;;;;;;;0.50;0.30;;;;;;;;;;5050821;28;20021;-62
2021/05/21 11:20:53;;;;;;;7.00;1.10;;;;;;;;;;5051687;28;20043;-61
2021/05/21 11:23:22;;;;;;;5.93;0.95;;;;;;;;;;5052059;28;20056;-65
2021/05/21 11:26:17;;;;;;;150.05;5.60;;;;;;;;;;5048949;28;20025;-43
2021/05/21 11:28:51;;;;;;;145.23;11.65;;;;;;;;;;5051285;28;20041;-45
2021/05/21 11:31:23;;;;;;;72.70;8.07;;;;;;;;;;5051716;28;20049;-44
2021/05/21 11:33:55;;;;;;;36.53;4.60;;;;;;;;;;5033597;28;20036;-44
2021/05/21 11:36:23;;;;;;;35.13;3.00;;;;;;;;;;5051553;28;20074;-40
2021/05/21 11:38:50;;;;;;;10.80;2.13;;;;;;;;;;5051210;28;20029;-40
2021/05/21 11:41:20;;;;;;;8.95;1.42;;;;;;;;;;5050906;28;20416;-41
2021/05/21 11:43:48;;;;;;;9.35;1.40;;;;;;;;;;5051543;28;20032;-42
2021/05/21 11:46:19;;;;;;;8.90;2.00;;;;;;;;;;5051093;28;20388;-41
2021/05/21 11:48:48;;;;;;;12.70;1.70;;;;;;;;;;5051337;28;20408;-40
2021/05/21 11:51:21;;;;;;;12.40;2.30;;;;;;;;;;5051809;28;20013;-41
2021/05/21 11:53:50;;;;;;;12.82;2.53;;;;;;;;;;5047389;28;20092;-42
2021/05/21 11:56:37;;;;;;;16.92;2.65;;;;;;;;;;5050934;28;20025;-43
2021/05/21 11:59:14;;;;;;;11.15;1.30;;;;;;;;;;5050917;28;20040;-46
2021/05/21 12:01:50;;;;;;;22.08;2.22;;;;;;;;;;5049750;28;20025;-47
2021/05/21 12:04:18;;;;;;;12.70;2.55;;;;;;;;;;5046248;28;20020;-46
2021/05/21 12:06:49;;;;;;;10.98;1.88;;;;;;;;;;5048841;28;20108;-46
2021/05/21 12:09:20;;;;;;;15.70;2.28;;;;;;;;;;5040794;28;20109;-56
2021/05/21 12:11:50;;;;;;;19.70;1.83;;;;;;;;;;5050633;28;20028;-66
2021/05/21 12:14:18;;;;;;;16.08;2.78;;;;;;;;;;5050364;28;20079;-54
2021/05/21 12:16:47;;;;;;;12.73;2.55;;;;;;;;;;5048507;28;20116;-46
2021/05/21 12:19:18;;;;;;;15.77;2.63;;;;;;;;;;5050237;28;20453;-59
2021/05/21 12:21:50;;;;;;;16.35;2.53;;;;;;;;;;5050896;28;20029;-47
2021/05/21 12:24:21;;;;;;;19.55;2.83;;;;;;;;;;5047534;28;20029;-50
2021/05/21 12:26:49;;;;;;;21.87;3.30;;;;;;;;;;5050335;28;20048;-57
2021/05/21 12:29:17;;;;;;;18.73;2.65;;;;;;;;;;5047846;28;20477;-46
2021/05/21 12:31:56;;;;;;;18.85;2.30;;;;;;;;;;5051116;28;20075;-46
2021/05/21 12:34:23;;;;;;;14.07;1.95;;;;;;;;;;5049972;28;20063;-49
2021/05/21 12:37:05;;;;;;;21.95;1.95;;;;;;;;;;5049463;28;20025;-46
2021/05/21 12:39:35;;;;;;;9.27;1.73;;;;;;;;;;5048377;28;20025;-47
2021/05/21 12:42:02;;;;;;;15.77;2.10;;;;;;;;;;5049226;28;20025;-48
2021/05/21 12:44:29;;;;;;;8.63;1.40;;;;;;;;;;5050098;28;20020;-42
2021/05/21 12:46:57;;;;;;;8.40;1.58;;;;;;;;;;5049811;28;20067;-46
2021/05/21 12:49:29;;;;;;;7.75;1.58;;;;;;;;;;5050169;28;20032;-48
2021/05/21 12:51:57;;;;;;;10.35;1.58;;;;;;;;;;5036171;28;20021;-43
2021/05/21 12:54:28;;;;;;;12.68;1.40;;;;;;;;;;5049620;28;20021;-41
2021/05/21 12:57:05;;;;;;;5.45;1.25;;;;;;;;;;5049825;28;20096;-44
2021/05/21 12:59:40;;;;;;;4.90;1.42;;;;;;;;;;5049293;28;20029;-45
2021/05/21 13:02:10;;;;;;;6.00;0.82;;;;;;;;;;5036977;28;20025;-53
2021/05/21 13:04:37;;;;;;;6.65;0.63;;;;;;;;;;5048238;28;20036;-54
2021/05/21 13:07:04;;;;;;;12.90;1.13;;;;;;;;;;5049008;28;20480;-57
2021/05/21 13:09:33;;;;;;;8.75;1.08;;;;;;;;;;5049274;28;20032;-56
2021/05/21 13:12:09;;;;;;;11.73;1.33;;;;;;;;;;5049081;28;20024;-41
2021/05/21 13:14:44;;;;;;;7.32;1.40;;;;;;;;;;5050337;28;20408;-41
2021/05/21 13:17:11;;;;;;;5.93;1.23;;;;;;;;;;5047276;28;20029;-36
2021/05/21 13:19:45;;;;;;;11.82;1.20;;;;;;;;;;5049932;28;20025;-45
2021/05/21 13:22:12;;;;;;;12.85;1.10;;;;;;;;;;5049804;28;20017;-44
2021/05/21 13:24:44;;;;;;;10.98;1.25;;;;;;;;;;5050912;28;20017;-36
2021/05/21 13:27:11;;;;;;;6.75;1.40;;;;;;;;;;5053235;28;20029;-43
2021/05/21 13:29:38;;;;;;;14.52;1.25;;;;;;;;;;5052115;28;20067;-40
2021/05/21 13:32:05;;;;;;;11.75;0.80;;;;;;;;;;5053641;28;20033;-38
2021/05/21 13:34:32;;;;;;;15.88;1.30;;;;;;;;;;5054115;28;20025;-55
2021/05/21 13:36:59;;;;;;;12.18;0.70;;;;;;;;;;5053181;28;20059;-47
2021/05/21 13:39:26;;;;;;;6.53;1.20;;;;;;;;;;5051573;28;20017;-59
2021/05/21 13:41:54;;;;;;;7.05;1.00;;;;;;;;;;5049685;28;20055;-55
2021/05/21 13:44:21;;;;;;;6.28;0.70;;;;;;;;;;5052820;28;20021;-42
2021/05/21 13:46:48;;;;;;;4.07;0.82;;;;;;;;;;5053576;28;20079;-42
2021/05/21 13:49:23;;;;;;;7.13;0.90;;;;;;;;;;5052998;28;20039;-42
2021/05/21 13:51:54;;;;;;;2.60;0.63;;;;;;;;;;5039429;28;20113;-41
2021/05/21 13:54:21;;;;;;;6.43;1.10;;;;;;;;;;5051609;28;20021;-41
2021/05/21 13:56:48;;;;;;;3.50;0.82;;;;;;;;;;5053317;28;20057;-40
2021/05/21 13:59:16;;;;;;;4.25;0.80;;;;;;;;;;5053116;28;20469;-41
2021/05/21 14:01:43;;;;;;;4.57;0.75;;;;;;;;;;5052285;28;20075;-43
2021/05/21 14:04:10;;;;;;;5.35;0.73;;;;;;;;;;5051463;28;20021;-41
2021/05/21 14:06:37;;;;;;;13.05;1.52;;;;;;;;;;5052477;28;20531;-42
2021/05/21 14:09:04;;;;;;;8.88;1.23;;;;;;;;;;5051535;28;20488;-43
2021/05/21 14:11:31;;;;;;;7.53;0.60;;;;;;;;;;5052291;28;20033;-44
2021/05/21 14:13:58;;;;;;;9.98;1.50;;;;;;;;;;5052877;28;20059;-45
2021/05/21 14:16:25;;;;;;;14.48;0.93;;;;;;;;;;5048601;28;20029;-38
2021/05/21 14:18:53;;;;;;;12.32;1.02;;;;;;;;;;5052279;28;20024;-41
2021/05/21 14:21:20;;;;;;;8.57;1.00;;;;;;;;;;5053176;28;20063;-43
2021/05/21 14:23:47;;;;;;;7.95;0.50;;;;;;;;;;5052512;28;20067;-39
2021/05/21 14:26:15;;;;;;;9.32;1.33;;;;;;;;;;5052851;28;20361;-41
2021/05/21 14:28:43;;;;;;;11.45;0.70;;;;;;;;;;5050795;28;20025;-40
2021/05/21 14:31:12;;;;;;;6.65;0.80;;;;;;;;;;5051689;28;20115;-40
2021/05/21 14:33:48;;;;;;;5.07;0.80;;;;;;;;;;5052584;28;20025;-39
2021/05/21 14:36:15;;;;;;;8.48;0.80;;;;;;;;;;5051613;28;20070;-40
2021/05/21 14:38:42;;;;;;;6.50;0.60;;;;;;;;;;5052705;28;20488;-43
2021/05/21 14:41:09;;;;;;;9.85;0.85;;;;;;;;;;5046114;28;20532;-44
2021/05/21 14:43:37;;;;;;;3.42;0.60;;;;;;;;;;5052649;28;20021;-43
2021/05/21 14:46:05;;;;;;;4.25;0.43;;;;;;;;;;5052390;28;20040;-45
2021/05/21 14:48:32;;;;;;;5.47;0.65;;;;;;;;;;5052559;28;20021;-43